Time;durP1;ratioP1;P1;durP2;ratioP2;P2;SDS_P1;SDS_P2;PMS_P1;PMS_P2;Temp;Humidity;BMP_temperature;BMP_pressure;BME280_temperature;BME280_humidity;BME280_pressure;Samples;Min_cycle;Max_cycle;Signal;HPM_P1;HPM_P2
2022/11/10 00:02:26;;;;;;;74.75;29.67;;;;;;;12.42;68.64;100070.16;7814563;32;37252;-88
2022/11/10 00:06:43;;;;;;;76.70;28.95;;;;;;;12.10;69.72;100068.59;7790379;32;39335;-88
2022/11/10 00:11:06;;;;;;;71.65;29.67;;;;;;;12.18;69.58;100077.03;7790551;32;39557;-90
2022/11/10 00:19:57;;;;;;;85.65;29.65;;;;;;;12.16;69.73;100083.91;7790695;32;37807;-89
2022/11/10 00:24:13;;;;;;;87.88;32.03;;;;;;;12.05;70.52;100082.25;7790485;32;39050;-88
2022/11/10 00:28:30;;;;;;;81.03;30.25;;;;;;;11.38;72.99;100090.34;7790411;32;40629;-88
2022/11/10 00:32:47;;;;;;;84.53;31.87;;;;;;;11.86;71.39;100093.69;7789925;32;37516;-89
2022/11/10 00:37:03;;;;;;;80.93;32.33;;;;;;;12.19;70.26;100088.78;7789780;32;37428;-88
2022/11/10 00:41:20;;;;;;;80.97;31.30;;;;;;;12.27;69.81;100090.97;7789719;32;39249;-88
2022/11/10 00:45:43;;;;;;;81.57;33.20;;;;;;;12.51;68.88;100080.25;7789835;32;40105;-88
2022/11/10 00:49:59;;;;;;;86.37;32.43;;;;;;;12.16;70.05;100089.38;7793275;32;37825;-89
2022/11/10 00:54:15;;;;;;;82.03;31.42;;;;;;;12.19;70.36;100086.91;7793601;32;37268;-89
2022/11/10 00:58:31;;;;;;;89.75;31.25;;;;;;;12.19;70.17;100086.91;7793332;32;39078;-89
2022/11/10 01:02:47;;;;;;;93.62;30.10;;;;;;;12.59;68.71;100087.09;7793033;32;40568;-89
2022/11/10 01:07:03;;;;;;;76.57;32.38;;;;;;;12.72;68.21;100086.47;7793426;32;38615;-88
2022/11/10 01:11:23;;;;;;;95.57;32.75;;;;;;;12.76;68.08;100084.00;7793401;32;37134;-89
2022/11/10 01:15:40;;;;;;;91.40;34.00;;;;;;;12.29;69.61;100088.78;7779661;32;39960;-89
2022/11/10 01:19:56;;;;;;;94.37;36.05;;;;;;;12.68;68.39;100090.06;7793272;32;39883;-89
2022/11/10 01:24:12;;;;;;;107.60;36.08;;;;;;;12.34;69.50;100088.78;7792290;32;37987;-89
2022/11/10 01:28:29;;;;;;;94.72;34.25;;;;;;;12.76;68.02;100093.06;7779187;32;38018;-89
2022/11/10 01:32:45;;;;;;;99.28;34.80;;;;;;;12.59;68.72;100100.78;7779150;32;39974;-89
2022/11/10 01:37:02;;;;;;;99.55;36.17;;;;;;;12.48;68.89;100096.41;7779104;32;40714;-88
2022/11/10 01:41:18;;;;;;;102.28;33.78;;;;;;;12.20;70.23;100093.16;7779068;32;38040;-89
2022/11/10 01:45:52;;;;;;;108.63;36.17;;;;;;;12.49;69.16;100092.59;7792464;32;37052;-89
2022/11/10 01:50:08;;;;;;;103.80;34.28;;;;;;;12.31;69.82;100089.31;7779364;32;39986;-88
2022/11/10 01:54:40;;;;;;;138.05;36.42;;;;;;;12.14;70.67;100092.38;7792796;32;39914;-89
2022/11/10 01:59:04;;;;;;;142.32;36.13;;;;;;;12.64;68.89;100083.50;7779194;32;38051;-88
2022/11/10 02:03:44;;;;;;;110.40;32.28;;;;;;;12.26;70.37;100085.78;7779132;32;37563;-88
2022/11/10 02:08:01;;;;;;;264.05;37.00;;;;;;;12.32;70.23;100101.91;7779232;32;39287;-88
2022/11/10 02:12:35;;;;;;;116.10;33.70;;;;;;;11.85;72.01;100092.06;7778301;32;39799;-88
2022/11/10 02:16:52;;;;;;;84.50;31.55;;;;;;;12.10;71.40;100096.72;7780348;32;38046;-90
2022/11/10 02:21:08;;;;;;;93.32;31.65;;;;;;;11.98;71.33;100091.53;7778581;32;37451;-89
2022/11/10 02:25:29;;;;;;;86.80;30.67;;;;;;;12.24;70.54;100090.72;7792456;32;40078;-88
2022/11/10 02:29:45;;;;;;;79.55;29.25;;;;;;;12.10;70.87;100101.37;7792709;32;40653;-89
2022/11/10 02:34:01;;;;;;;80.80;30.12;;;;;;;12.39;69.80;100105.16;7792420;32;38579;-89
2022/11/10 02:38:17;;;;;;;82.40;29.50;;;;;;;12.23;70.11;100100.81;7792014;32;36923;-89
2022/11/10 02:42:33;;;;;;;56.97;26.80;;;;;;;12.10;70.26;100110.38;7792332;32;40068;-89
2022/11/10 02:46:49;;;;;;;63.42;27.35;;;;;;;11.82;70.85;100118.00;7792452;32;40056;-89
2022/11/10 02:51:05;;;;;;;61.97;26.73;;;;;;;11.62;71.54;100123.44;7792229;32;37897;-88
2022/11/10 02:55:22;;;;;;;64.87;27.05;;;;;;;11.84;70.59;100128.66;7792205;32;38123;-88
2022/11/10 02:59:38;;;;;;;60.22;25.40;;;;;;;11.88;70.37;100137.94;7792122;32;40104;-88
2022/11/10 03:03:54;;;;;;;55.75;24.98;;;;;;;12.28;69.00;100136.38;7792059;32;40085;-89
2022/11/10 03:08:10;;;;;;;54.03;25.88;;;;;;;12.01;69.86;100142.91;7791977;32;38645;-87
2022/11/10 03:12:26;;;;;;;54.95;24.65;;;;;;;12.32;68.93;100150.31;7791292;32;37971;-87
2022/11/10 03:16:42;;;;;;;52.35;24.50;;;;;;;12.27;69.12;100151.09;7791973;32;40000;-88
2022/11/10 03:20:58;;;;;;;55.33;25.15;;;;;;;12.20;69.23;100156.03;7791827;32;40025;-88
2022/11/10 03:25:15;;;;;;;51.40;23.67;;;;;;;12.17;69.11;100153.84;7791568;32;38825;-87
2022/11/10 03:29:32;;;;;;;55.78;24.48;;;;;;;12.21;68.90;100163.13;7791758;32;38208;-88
2022/11/10 03:33:48;;;;;;;53.17;24.90;;;;;;;12.13;69.05;100163.69;7791619;32;39344;-87
2022/11/10 03:38:04;;;;;;;49.28;23.77;;;;;;;12.17;68.93;100162.03;7791532;32;39934;-88
2022/11/10 03:42:20;;;;;;;56.30;25.12;;;;;;;12.47;67.94;100165.84;7791401;32;38032;-88
2022/11/10 03:46:36;;;;;;;52.47;24.42;;;;;;;12.45;67.98;100165.31;7791258;32;37147;-88
2022/11/10 03:50:58;;;;;;;47.60;23.92;;;;;;;12.34;68.16;100170.78;7791427;32;39453;-87
2022/11/10 03:55:17;;;;;;;55.35;24.90;;;;;;;12.07;69.06;100168.31;7777304;32;40128;-84
2022/11/10 03:59:33;;;;;;;54.10;25.02;;;;;;;12.36;68.04;100171.31;7791374;32;38617;-87
2022/11/10 04:03:49;;;;;;;61.25;25.98;;;;;;;12.37;68.38;100172.97;7791090;32;37619;-86
2022/11/10 04:17:24;;;;;;;58.20;26.12;;;;;;;12.48;67.13;100178.44;7778944;32;38618;-87
2022/11/10 04:21:40;;;;;;;57.25;26.40;;;;;;;12.20;67.87;100183.37;7791568;32;35247;-87
2022/11/10 04:30:43;;;;;;;66.12;27.27;;;;;;;12.06;68.40;100187.75;7793951;32;40675;-87
2022/11/10 04:34:59;;;;;;;61.72;27.40;;;;;;;12.25;67.65;100194.31;7793847;32;38736;-87
2022/11/10 04:39:15;;;;;;;58.00;24.90;;;;;;;12.24;67.66;100194.56;7793826;32;37141;-86
2022/11/10 04:43:32;;;;;;;60.63;26.10;;;;;;;12.02;68.79;100193.75;7779770;32;39239;-86
2022/11/10 04:47:48;;;;;;;67.28;27.50;;;;;;;12.03;68.79;100194.56;7793875;32;40808;-86
2022/11/10 04:52:04;;;;;;;57.20;25.52;;;;;;;11.83;69.30;100196.16;7779633;32;37750;-86
2022/11/10 04:56:23;;;;;;;57.30;26.77;;;;;;;12.07;68.54;100200.31;7793704;32;37431;-86
2022/11/10 05:00:40;;;;;;;55.88;24.95;;;;;;;12.16;68.11;100210.44;7793706;32;39300;-87
2022/11/10 05:04:56;;;;;;;54.10;24.92;;;;;;;12.09;68.02;100207.16;7793396;32;40729;-86
2022/11/10 05:09:12;;;;;;;52.15;25.50;;;;;;;12.09;67.91;100215.34;7793421;32;38004;-86
2022/11/10 05:13:29;;;;;;;59.08;26.05;;;;;;;12.01;68.06;100224.06;7793583;32;37156;-87
2022/11/10 05:17:48;;;;;;;66.82;27.52;;;;;;;12.18;67.64;100230.09;7779496;32;39991;-86
2022/11/10 05:22:06;;;;;;;63.87;28.10;;;;;;;11.53;70.00;100235.09;7793335;32;39918;-87
2022/11/10 05:26:22;;;;;;;60.97;26.77;;;;;;;11.83;69.21;100233.56;7793182;32;38732;-87
2022/11/10 05:30:39;;;;;;;58.67;26.95;;;;;;;11.80;69.13;100247.78;7779206;32;38023;-86
2022/11/10 05:34:55;;;;;;;58.67;25.80;;;;;;;12.17;68.19;100246.78;7778800;32;39047;-86
2022/11/10 05:39:11;;;;;;;67.10;27.20;;;;;;;11.97;68.86;100266.69;7779123;32;39853;-86
2022/11/10 05:43:27;;;;;;;62.83;26.10;;;;;;;11.89;69.19;100259.81;7792862;32;38588;-87
2022/11/10 05:47:43;;;;;;;68.40;27.48;;;;;;;12.00;69.02;100264.25;7792942;32;37183;-86
2022/11/10 05:51:59;;;;;;;65.82;27.15;;;;;;;12.00;69.09;100266.97;7792793;32;39288;-86
2022/11/10 05:56:15;;;;;;;71.15;28.27;;;;;;;11.90;69.63;100271.53;7792961;32;39948;-86
2022/11/10 06:00:32;;;;;;;61.95;27.60;;;;;;;11.85;69.78;100275.09;7792738;32;38766;-87
2022/11/10 06:04:48;;;;;;;57.42;26.23;;;;;;;12.13;68.95;100286.69;7792713;32;37305;-86
2022/11/10 06:09:04;;;;;;;67.40;29.00;;;;;;;12.27;68.67;100297.91;7792703;32;39381;-87
2022/11/10 06:13:20;;;;;;;66.93;28.60;;;;;;;12.00;69.47;100309.84;7792597;32;39989;-86
2022/11/10 06:17:37;;;;;;;78.85;28.70;;;;;;;11.90;70.08;100315.25;7792501;32;37956;-87
2022/11/10 06:21:53;;;;;;;72.47;29.33;;;;;;;12.16;69.38;100321.69;7792568;32;37397;-86
2022/11/10 06:26:18;;;;;;;82.32;29.15;;;;;;;11.84;70.54;100333.56;7792520;32;39400;-87
2022/11/10 06:30:36;;;;;;;82.37;30.88;;;;;;;12.13;69.62;100324.94;7792382;32;40687;-87
2022/11/10 06:34:52;;;;;;;80.72;29.80;;;;;;;12.50;68.44;100329.38;7792312;32;38078;-86
2022/11/10 06:39:15;;;;;;;87.60;31.52;;;;;;;12.24;69.23;100337.53;7792312;32;37181;-86
2022/11/10 06:43:31;;;;;;;96.60;32.65;;;;;;;12.17;69.75;100348.72;7792037;32;39399;-86
2022/11/10 06:47:47;;;;;;;97.72;31.20;;;;;;;12.26;69.62;100349.00;7777399;32;39686;-86
2022/11/10 06:52:03;;;;;;;83.80;30.50;;;;;;;12.55;68.80;100360.28;7778208;32;38823;-86
2022/11/10 06:56:19;;;;;;;79.20;28.52;;;;;;;12.48;69.12;100378.06;7792205;32;37050;-86
2022/11/10 07:00:35;;;;;;;80.80;30.40;;;;;;;12.72;68.38;100381.94;7778141;32;40036;-87
2022/11/10 07:04:52;;;;;;;79.10;29.45;;;;;;;12.70;68.38;100392.31;7792005;32;39948;-88
2022/11/10 07:09:08;;;;;;;87.05;31.75;;;;;;;12.77;68.30;100390.16;7778084;32;38049;-87
2022/11/10 07:13:24;;;;;;;91.57;31.58;;;;;;;12.53;69.04;100397.22;7778041;32;37193;-87
2022/11/10 07:17:41;;;;;;;84.93;31.83;;;;;;;12.69;68.68;100393.41;7778069;32;39289;-88
2022/11/10 07:21:57;;;;;;;79.97;31.12;;;;;;;12.21;70.34;100398.19;7777885;32;39729;-88
2022/11/10 07:26:13;;;;;;;89.35;30.92;;;;;;;12.58;68.96;100408.16;7791704;32;37849;-87
2022/11/10 07:30:33;;;;;;;78.65;30.02;;;;;;;12.57;68.69;100412.00;7792271;32;37290;-85
2022/11/10 07:34:49;;;;;;;84.37;30.30;;;;;;;12.57;68.79;100420.19;7778087;32;39209;-86
2022/11/10 07:39:05;;;;;;;78.53;30.77;;;;;;;12.46;69.42;100422.09;7791565;32;40739;-87
2022/11/10 07:43:23;;;;;;;70.75;30.80;;;;;;;12.12;70.30;100432.63;7791326;32;37702;-87
2022/11/10 07:47:39;;;;;;;80.18;29.90;;;;;;;12.37;69.40;100432.72;7774374;32;37199;-86
2022/11/10 07:51:56;;;;;;;80.05;30.48;;;;;;;12.14;70.06;100433.16;7790911;32;39767;-85
2022/11/10 07:56:13;;;;;;;74.05;29.90;;;;;;;11.99;70.68;100445.69;7790770;32;40755;-90
2022/11/10 08:00:29;;;;;;;74.80;29.45;;;;;;;11.75;71.81;100453.44;7776511;32;38037;-88
2022/11/10 08:04:45;;;;;;;69.90;29.52;;;;;;;11.43;72.97;100456.19;7790504;32;37007;-90
2022/11/10 08:09:01;;;;;;;70.30;28.62;;;;;;;12.14;70.25;100452.28;7776594;32;39872;-90
2022/11/10 08:13:17;;;;;;;77.00;28.70;;;;;;;11.78;72.09;100457.53;7777074;32;40488;-82
2022/11/10 08:17:33;;;;;;;70.05;28.00;;;;;;;11.52;71.91;100467.47;7817181;32;37980;-83
2022/11/10 08:21:50;;;;;;;77.28;28.65;;;;;;;11.56;71.82;100469.41;7818287;32;37935;-90
2022/11/10 08:26:06;;;;;;;75.50;28.52;;;;;;;11.62;71.81;100476.56;7812594;32;39502;-89
2022/11/10 08:30:22;;;;;;;67.28;27.52;;;;;;;11.75;70.94;100471.72;7763604;32;40116;-91
2022/11/10 08:34:38;;;;;;;71.78;29.02;;;;;;;11.79;70.60;100483.78;7771838;32;38072;-87
2022/11/10 08:38:54;;;;;;;72.20;29.23;;;;;;;11.80;70.88;100479.97;7774549;32;37798;-85
2022/11/10 08:43:11;;;;;;;78.93;28.30;;;;;;;12.15;70.69;100486.75;7789074;32;39372;-88
2022/11/10 08:47:28;;;;;;;57.05;26.45;;;;;;;11.88;71.06;100505.97;7785055;32;39944;-85
2022/11/10 08:51:44;;;;;;;66.87;28.62;;;;;;;12.23;69.17;100504.56;7788757;32;38002;-86
2022/11/10 08:56:00;;;;;;;63.28;25.92;;;;;;;12.08;69.58;100502.56;7788239;32;37876;-86
2022/11/10 09:00:17;;;;;;;65.60;27.85;;;;;;;12.29;69.15;100526.19;7788864;32;39094;-88
2022/11/10 09:04:33;;;;;;;68.10;24.70;;;;;;;12.89;67.43;100523.16;7788604;32;39810;-86
2022/11/10 09:08:49;;;;;;;59.75;25.88;;;;;;;12.30;68.83;100533.31;7790168;32;37730;-85
2022/11/10 09:13:05;;;;;;;57.03;25.17;;;;;;;12.93;66.89;100535.19;7776722;32;37240;-88
2022/11/10 09:17:21;;;;;;;50.05;23.40;;;;;;;13.02;66.28;100551.91;7791726;32;39311;-86
2022/11/10 09:21:38;;;;;;;46.97;22.15;;;;;;;13.22;65.82;100553.91;7792179;32;40793;-88
2022/11/10 09:25:55;;;;;;;50.35;22.17;;;;;;;13.04;65.32;100564.25;7777723;32;38152;-89
2022/11/10 09:30:11;;;;;;;41.83;20.02;;;;;;;13.04;64.98;100568.87;7776079;32;37026;-89
2022/11/10 09:34:32;;;;;;;38.92;18.98;;;;;;;13.27;63.61;100562.13;7791720;32;38906;-89
2022/11/10 09:38:48;;;;;;;38.30;17.67;;;;;;;12.92;62.61;100566.41;7792190;32;40660;-88
2022/11/10 09:43:05;;;;;;;38.35;18.45;;;;;;;13.66;61.67;100558.87;7790366;32;37962;-87
2022/11/10 09:47:31;;;;;;;38.53;18.42;;;;;;;13.69;61.50;100559.19;7793846;32;37012;-88
2022/11/10 09:52:10;;;;;;;43.17;19.95;;;;;;;13.42;60.80;100564.06;7787310;32;39638;-91
2022/11/10 09:56:34;;;;;;;41.03;19.50;;;;;;;13.33;61.75;100566.53;7777411;32;38764;-92
2022/11/10 10:01:02;;;;;;;43.28;19.83;;;;;;;13.41;62.07;100573.41;7778235;32;38186;-92
2022/11/10 10:05:52;;;;;;;44.85;21.02;;;;;;;13.34;62.67;100576.41;7778962;32;37367;-92
2022/11/10 10:10:43;;;;;;;41.00;21.75;;;;;;;13.85;61.71;100565.50;7771170;32;38584;-86
2022/11/10 10:15:20;;;;;;;44.22;21.23;;;;;;;13.07;62.99;100580.16;7778415;32;40582;-85
2022/11/10 10:20:08;;;;;;;44.63;21.48;;;;;;;13.43;62.61;100572.03;7788851;32;38041;-87
2022/11/10 10:24:31;;;;;;;48.70;23.70;;;;;;;13.02;63.85;100585.59;7791628;32;37286;-88
2022/11/10 10:28:48;;;;;;;49.95;23.58;;;;;;;12.84;64.64;100597.84;7778705;32;39219;-87
2022/11/10 10:33:15;;;;;;;50.88;22.83;;;;;;;12.21;66.77;100611.41;7787124;32;39833;-88
2022/11/10 10:37:56;;;;;;;52.50;24.50;;;;;;;12.63;65.86;100613.34;7813672;32;37943;-85
2022/11/10 10:42:34;;;;;;;55.22;26.60;;;;;;;12.47;66.45;100617.06;7778954;32;38212;-89
2022/11/10 10:46:58;;;;;;;53.42;24.48;;;;;;;12.51;66.75;100620.94;7775973;32;40118;-91
2022/11/10 10:51:28;;;;;;;52.33;25.05;;;;;;;12.12;68.16;100613.81;7776353;32;40416;-90
2022/11/10 10:55:47;;;;;;;50.30;23.70;;;;;;;12.36;67.41;100630.66;7776953;32;37943;-90
2022/11/10 11:00:32;;;;;;;50.08;24.55;;;;;;;12.67;66.08;100636.34;7792610;32;37294;-89
2022/11/10 11:04:48;;;;;;;49.65;22.65;;;;;;;12.18;66.93;100639.31;7789206;32;40066;-88
2022/11/10 11:09:22;;;;;;;50.78;22.10;;;;;;;12.24;67.11;100643.72;7778148;32;39842;-88
2022/11/10 11:13:38;;;;;;;;;;;;;;;12.25;66.66;100639.91;7792455;32;38178;-86
2022/11/10 11:18:03;;;;;;;51.40;22.48;;;;;;;11.85;67.90;100657.59;7792309;32;36875;-88
2022/11/10 11:22:51;;;;;;;53.75;22.87;;;;;;;12.14;66.79;100654.56;7792209;32;39118;-88
2022/11/10 11:27:40;;;;;;;46.70;21.80;;;;;;;12.11;67.29;100663.31;7772692;32;206779;-88
2022/11/10 11:32:17;;;;;;;50.08;21.52;;;;;;;12.21;66.26;100671.56;7791456;32;38113;-88
2022/11/10 11:36:50;;;;;;;53.20;22.00;;;;;;;12.46;65.86;100660.00;7779100;32;37240;-88
2022/11/10 11:41:22;;;;;;;47.30;21.20;;;;;;;12.61;65.00;100658.44;7778895;32;40020;-88
2022/11/10 11:45:56;;;;;;;49.60;23.00;;;;;;;12.58;64.92;100665.28;7791222;32;40702;-87
2022/11/10 11:50:30;;;;;;;52.60;22.95;;;;;;;12.21;65.86;100660.63;7791197;32;38244;-90
2022/11/10 11:55:09;;;;;;;47.62;21.75;;;;;;;12.74;64.78;100658.78;7789513;32;37325;-86
2022/11/10 12:00:02;;;;;;;52.25;24.00;;;;;;;12.84;64.15;100663.50;7800298;32;39545;-89
2022/11/10 12:04:34;;;;;;;49.70;22.50;;;;;;;12.42;65.11;100677.19;7779341;32;40746;-90
2022/11/10 12:09:00;;;;;;;52.38;22.85;;;;;;;12.65;64.59;100682.28;7789898;32;38794;-90
2022/11/10 12:13:19;;;;;;;50.47;23.25;;;;;;;12.15;65.91;100691.75;7776800;32;37845;-87
2022/11/10 12:17:50;;;;;;;49.72;22.40;;;;;;;12.63;64.84;100686.38;7762851;32;39863;-93
2022/11/10 12:22:12;;;;;;;50.30;23.90;;;;;;;12.25;66.37;100688.28;7778445;32;39885;-90
2022/11/10 12:26:38;;;;;;;59.20;25.30;;;;;;;12.39;66.13;100695.78;7790587;32;38799;-94
2022/11/10 12:30:59;;;;;;;53.55;23.83;;;;;;;12.58;65.19;100690.72;7790671;32;37290;-93
2022/11/10 12:35:20;;;;;;;57.88;26.10;;;;;;;12.32;66.14;100700.66;7777174;32;39316;-90
2022/11/10 12:39:55;;;;;;;61.20;25.80;;;;;;;12.34;65.79;100698.47;7789627;32;40093;-91
2022/11/10 12:44:32;;;;;;;55.35;25.23;;;;;;;12.57;65.80;100707.38;7790627;32;38771;-93
2022/11/10 12:49:13;;;;;;;54.20;24.83;;;;;;;12.55;65.82;100710.38;7793567;32;37934;-92
2022/11/10 12:53:32;;;;;;;51.30;23.85;;;;;;;12.83;64.94;100713.03;7793466;32;39780;-93
2022/11/10 12:57:48;;;;;;;58.00;26.35;;;;;;;12.78;64.84;100709.19;7777239;32;39844;-94
2022/11/10 13:02:21;;;;;;;61.35;26.95;;;;;;;12.77;64.94;100718.47;7777701;32;37892;-89
2022/11/10 13:06:44;;;;;;;55.07;25.47;;;;;;;12.63;65.34;100713.75;7792664;32;37309;-88
2022/11/10 13:11:21;;;;;;;58.10;25.88;;;;;;;13.04;63.67;100717.56;7780557;32;40164;-90
2022/11/10 13:15:37;;;;;;;56.60;24.58;;;;;;;13.00;64.16;100727.38;7793606;32;39735;-90
2022/11/10 13:20:01;;;;;;;64.07;25.67;;;;;;;12.94;64.72;100729.25;7793483;32;37993;-90
2022/11/10 13:24:39;;;;;;;60.42;24.40;;;;;;;12.54;65.63;100727.09;7792803;32;38192;-90
2022/11/10 13:29:00;;;;;;;52.10;25.40;;;;;;;12.73;65.26;100733.78;7793677;32;37988;-87
2022/11/10 13:33:36;;;;;;;53.50;25.42;;;;;;;12.49;66.07;100738.81;7793518;32;39857;-88
2022/11/10 13:37:53;;;;;;;48.80;23.02;;;;;;;12.78;65.33;100738.47;7792873;32;37795;-87
2022/11/10 13:42:09;;;;;;;54.85;24.23;;;;;;;12.90;64.99;100732.78;7793154;32;37445;-88
2022/11/10 13:46:53;;;;;;;47.42;23.85;;;;;;;13.10;64.74;100752.06;7793376;32;39292;-88
2022/11/10 13:51:34;;;;;;;48.55;23.00;;;;;;;13.25;64.35;100751.31;7780603;32;40785;-88
2022/11/10 13:56:26;;;;;;;48.80;22.73;;;;;;;12.90;64.77;100761.00;7776216;32;38395;-87
2022/11/10 14:00:47;;;;;;;47.55;23.15;;;;;;;13.02;64.73;100774.47;7780508;32;36738;-88
2022/11/10 14:05:08;;;;;;;51.83;23.98;;;;;;;13.17;63.99;100770.16;7779066;32;38945;-87
2022/11/10 14:09:39;;;;;;;51.85;23.98;;;;;;;13.42;63.36;100770.34;7792754;32;39666;-87
2022/11/10 14:14:09;;;;;;;49.17;23.25;;;;;;;13.18;63.63;100772.66;7779364;32;38807;-87
2022/11/10 14:18:45;;;;;;;48.53;22.77;;;;;;;12.65;65.81;100785.44;7792921;32;36994;-87
2022/11/10 14:23:04;;;;;;;47.15;23.58;;;;;;;13.45;63.25;100780.78;7780527;32;39799;-87
2022/11/10 14:27:30;;;;;;;50.20;23.27;;;;;;;12.61;65.37;100785.13;7792609;32;40753;-87
2022/11/10 14:31:46;;;;;;;47.88;23.98;;;;;;;13.23;63.78;100785.53;7779194;32;38941;-87
2022/11/10 14:36:09;;;;;;;51.75;23.67;;;;;;;12.72;65.21;100795.03;7792580;32;37157;-87
2022/11/10 14:40:27;;;;;;;49.72;22.85;;;;;;;12.56;66.05;100793.28;7779068;32;39132;-87
2022/11/10 14:44:43;;;;;;;46.55;22.58;;;;;;;12.96;64.70;100794.69;7778568;32;40609;-87
2022/11/10 14:49:00;;;;;;;45.30;20.23;;;;;;;13.18;64.10;100804.66;7778294;32;38606;-88
2022/11/10 14:53:20;;;;;;;47.38;21.40;;;;;;;12.69;65.85;100813.91;7778227;32;37981;-86
2022/11/10 14:57:37;;;;;;;47.62;21.30;;;;;;;12.64;66.40;100822.06;7778397;32;39337;-88
2022/11/10 15:01:59;;;;;;;42.20;20.30;;;;;;;12.61;66.43;100823.41;7778398;32;40529;-90
2022/11/10 15:06:16;;;;;;;45.45;22.27;;;;;;;12.91;65.52;100824.75;7774189;32;37945;-88
2022/11/10 15:10:38;;;;;;;46.05;21.83;;;;;;;12.49;66.88;100836.44;7763752;32;38094;-88
2022/11/10 15:14:59;;;;;;;48.35;22.42;;;;;;;12.84;65.90;100837.84;7791307;32;40077;-90
2022/11/10 15:19:21;;;;;;;51.67;22.92;;;;;;;12.93;65.37;100852.69;7762782;32;40787;-93
2022/11/10 15:23:39;;;;;;;48.70;21.85;;;;;;;13.14;64.49;100849.00;7764394;32;38815;-91
2022/11/10 15:28:03;;;;;;;46.90;22.67;;;;;;;13.43;63.40;100847.84;7763845;32;36905;-91
2022/11/10 15:32:22;;;;;;;53.20;22.83;;;;;;;13.49;63.24;100855.03;7763409;32;39277;-90
2022/11/10 15:36:38;;;;;;;52.67;23.70;;;;;;;13.28;63.72;100865.81;7763945;32;39856;-89
2022/11/10 15:41:10;;;;;;;48.70;23.55;;;;;;;13.27;63.58;100866.88;7750054;32;38116;-90
2022/11/10 15:45:26;;;;;;;48.87;24.50;;;;;;;13.18;63.88;100864.91;7762764;32;37279;-89
2022/11/10 15:49:42;;;;;;;45.35;22.75;;;;;;;12.69;65.75;100877.63;7763252;32;40115;-89
2022/11/10 15:53:58;;;;;;;45.85;24.40;;;;;;;13.15;64.20;100883.50;7764064;32;39903;-89
2022/11/10 15:58:17;;;;;;;52.13;23.60;;;;;;;12.96;64.49;100890.47;7763203;32;37861;-89
2022/11/10 16:02:33;;;;;;;46.25;22.77;;;;;;;12.72;65.25;100888.06;7762954;32;36385;-88
2022/11/10 16:06:49;;;;;;;47.38;21.80;;;;;;;12.68;65.58;100900.63;7763343;32;39011;-90
2022/11/10 16:11:15;;;;;;;47.95;22.40;;;;;;;12.77;65.34;100903.72;7763468;32;39921;-91
2022/11/10 16:15:31;;;;;;;44.20;21.30;;;;;;;12.85;64.70;100905.16;7763423;32;37812;-86
2022/11/10 16:19:47;;;;;;;52.00;23.60;;;;;;;12.42;66.69;100901.44;7769492;32;37180;-88
2022/11/10 16:24:04;;;;;;;47.22;23.00;;;;;;;12.56;66.07;100909.00;7772562;32;39238;-89
2022/11/10 16:28:22;;;;;;;45.47;22.02;;;;;;;12.31;66.97;100909.53;7770535;32;40752;-87
2022/11/10 16:32:39;;;;;;;43.38;21.62;;;;;;;12.58;65.99;100914.19;7772079;32;38133;-87
2022/11/10 16:36:55;;;;;;;50.33;21.67;;;;;;;12.58;65.63;100922.41;7771756;32;37361;-90
2022/11/10 16:41:13;;;;;;;49.95;22.98;;;;;;;12.91;64.44;100920.53;7772210;32;39278;-88
2022/11/10 16:45:29;;;;;;;43.25;21.55;;;;;;;12.59;65.28;100932.28;7770341;32;39950;-89
2022/11/10 16:49:46;;;;;;;43.50;21.73;;;;;;;12.81;64.62;100931.38;7771073;32;38801;-91
2022/11/10 16:54:03;;;;;;;44.72;22.83;;;;;;;12.54;65.14;100951.38;7772258;32;38365;-87
2022/11/10 16:58:19;;;;;;;46.67;22.55;;;;;;;12.59;64.39;100952.25;7757504;32;39830;-89
2022/11/10 17:02:38;;;;;;;42.67;20.95;;;;;;;12.55;64.20;100969.41;7771157;32;39994;-88
2022/11/10 17:06:54;;;;;;;44.40;24.20;;;;;;;12.30;64.70;100981.72;7770898;32;37181;-88
2022/11/10 17:11:10;;;;;;;42.40;20.92;;;;;;;12.59;63.59;100989.72;7769582;32;37962;-89
2022/11/10 17:15:26;;;;;;;44.30;21.95;;;;;;;12.24;63.74;100992.84;7771259;32;40080;-95
2022/11/10 17:19:43;;;;;;;46.13;22.05;;;;;;;12.23;63.57;100997.50;7770781;32;41012;-94
2022/11/10 17:24:00;;;;;;;38.80;21.15;;;;;;;12.07;63.75;101003.81;7758821;32;37913;-92
2022/11/10 17:28:17;;;;;;;43.60;20.90;;;;;;;12.33;62.66;101010.44;7768807;32;37721;-94
2022/11/10 17:32:34;;;;;;;37.97;19.95;;;;;;;12.29;64.54;101022.97;7752554;32;41064;-90
2022/11/10 17:37:13;;;;;;;37.83;18.52;;;;;;;11.84;66.21;101025.59;7765089;32;40012;-89
2022/11/10 17:41:29;;;;;;;38.42;19.35;;;;;;;12.04;64.41;101037.94;7764047;32;37614;-89
2022/11/10 17:45:46;;;;;;;39.13;20.12;;;;;;;11.86;64.69;101039.00;7764432;32;37320;-90
2022/11/10 17:50:02;;;;;;;46.08;19.83;;;;;;;11.63;65.83;101051.75;7765347;32;40151;-90
2022/11/10 17:54:18;;;;;;;45.65;20.88;;;;;;;11.48;66.37;101056.16;7764197;32;38794;-91
2022/11/10 17:58:34;;;;;;;36.50;19.10;;;;;;;11.38;66.84;101062.25;7763796;32;37359;-89
2022/11/10 18:02:55;;;;;;;46.37;22.20;;;;;;;11.63;65.32;101059.97;7765161;32;37472;-89
2022/11/10 18:07:11;;;;;;;39.95;21.33;;;;;;;11.48;65.92;101058.88;7764211;32;39820;-89
2022/11/10 18:11:27;;;;;;;46.55;22.58;;;;;;;11.56;65.12;101063.94;7763749;32;40097;-90
2022/11/10 18:15:45;;;;;;;40.72;21.35;;;;;;;11.58;64.95;101080.91;7764214;32;38036;-89
2022/11/10 18:20:02;;;;;;;41.90;20.85;;;;;;;11.27;65.38;101089.38;7765076;32;37358;-90
2022/11/10 18:24:18;;;;;;;41.55;19.40;;;;;;;11.34;64.95;101102.88;7765165;32;39134;-90
2022/11/10 18:28:35;;;;;;;49.13;20.15;;;;;;;11.16;65.21;101101.19;7765010;32;39863;-88
2022/11/10 18:32:51;;;;;;;42.50;21.45;;;;;;;11.17;65.18;101105.56;7763514;32;37715;-89
2022/11/10 18:37:07;;;;;;;41.35;20.65;;;;;;;11.26;64.94;101114.19;7765120;32;37364;-89
2022/11/10 18:45:58;;;;;;;48.58;21.50;;;;;;;11.40;64.58;101131.94;7764499;32;39682;-90
2022/11/10 18:50:21;;;;;;;42.63;19.70;;;;;;;11.02;65.68;101132.53;7764635;32;38770;-91
2022/11/10 18:54:37;;;;;;;42.15;20.00;;;;;;;11.17;65.86;101129.28;7763398;32;36502;-90
2022/11/10 18:58:53;;;;;;;37.85;19.75;;;;;;;11.05;66.08;101135.59;7783881;32;39310;-93
2022/11/10 19:03:12;;;;;;;46.33;20.67;;;;;;;11.09;65.57;101133.25;7778236;32;38895;-88
2022/11/10 19:07:28;;;;;;;48.70;20.45;;;;;;;11.11;67.60;101128.37;7777357;32;37547;-89
2022/11/10 19:11:45;;;;;;;42.92;20.15;;;;;;;11.06;66.07;101125.53;7792232;32;37237;-87
2022/11/10 19:16:12;;;;;;;42.97;21.37;;;;;;;11.03;65.81;101121.37;7792080;32;39502;-88
2022/11/10 19:20:28;;;;;;;40.60;21.30;;;;;;;10.81;66.35;101134.03;7791997;32;39920;-87
2022/11/10 19:24:45;;;;;;;43.17;22.05;;;;;;;10.79;65.95;101145.16;7791691;32;37994;-87
2022/11/10 19:29:21;;;;;;;41.63;20.45;;;;;;;10.44;66.78;101148.78;7791435;32;37782;-87
2022/11/10 19:33:40;;;;;;;45.72;21.77;;;;;;;10.64;65.96;101150.28;7791808;32;39169;-87
2022/11/10 19:37:56;;;;;;;44.08;21.80;;;;;;;10.46;66.87;101171.16;7792088;32;40628;-87
2022/11/10 19:42:12;;;;;;;40.88;20.55;;;;;;;10.10;68.00;101161.28;7791562;32;37951;-86
2022/11/10 19:46:32;;;;;;;45.20;20.58;;;;;;;10.11;68.02;101174.69;7791503;32;36867;-86
2022/11/10 19:50:53;;;;;;;44.97;21.37;;;;;;;10.04;67.76;101173.97;7791404;32;40415;-87
2022/11/10 19:55:09;;;;;;;42.83;21.23;;;;;;;10.28;66.70;101176.72;7791144;32;40690;-87
2022/11/10 19:59:26;;;;;;;42.70;22.27;;;;;;;10.05;67.88;101172.06;7791307;32;38865;-87
2022/11/10 20:03:42;;;;;;;43.25;21.20;;;;;;;10.09;66.98;101178.69;7790701;32;38085;-86
2022/11/10 20:08:10;;;;;;;40.55;20.05;;;;;;;9.93;67.52;101177.47;7796852;32;39224;-88